createdAt,value
2022-10-24T03:21:22.745Z,14.42
2022-10-24T03:23:51.116Z,14.47
2022-10-24T03:26:19.289Z,14.55
2022-10-24T03:28:47.593Z,14.61
2022-10-24T03:31:15.852Z,14.65
2022-10-24T03:33:44.077Z,14.70
2022-10-24T03:36:12.623Z,14.74
2022-10-24T03:38:40.876Z,14.75
2022-10-24T03:41:08.970Z,14.74
2022-10-24T03:43:37.363Z,14.75
2022-10-24T03:46:05.700Z,14.76
2022-10-24T03:48:33.837Z,14.79
2022-10-24T03:51:02.179Z,14.83
2022-10-24T03:53:30.315Z,14.84
2022-10-24T03:55:58.501Z,14.86
2022-10-24T03:58:27.466Z,14.85
2022-10-24T04:00:58.789Z,14.77
2022-10-24T04:03:27.819Z,14.73
2022-10-24T04:05:56.335Z,14.70
2022-10-24T04:08:24.714Z,14.66
2022-10-24T04:10:52.893Z,14.57
2022-10-24T04:13:21.777Z,14.50
2022-10-24T04:15:50.156Z,14.45
2022-10-24T04:18:18.310Z,14.40
2022-10-24T04:20:46.526Z,14.35
2022-10-24T04:23:14.739Z,14.29
2022-10-24T04:25:43.481Z,14.27
2022-10-24T04:28:11.710Z,14.28
2022-10-24T04:30:39.804Z,14.29
2022-10-24T04:33:08.032Z,14.34
2022-10-24T04:35:36.238Z,14.40
2022-10-24T04:38:04.562Z,14.45
2022-10-24T04:40:32.880Z,14.49
2022-10-24T04:43:01.355Z,14.53
2022-10-24T04:45:29.515Z,14.53
2022-10-24T04:47:57.719Z,14.50
2022-10-24T04:50:26.317Z,14.52
2022-10-24T04:52:54.389Z,14.52
2022-10-24T04:55:22.589Z,14.51
2022-10-24T04:57:50.806Z,14.48
2022-10-24T05:00:19.001Z,14.45
2022-10-24T05:02:47.195Z,14.48
2022-10-24T05:05:17.341Z,14.50
2022-10-24T05:07:46.323Z,14.48
2022-10-24T05:10:16.213Z,14.52
2022-10-24T05:12:45.082Z,14.50
2022-10-24T05:15:15.130Z,14.48
2022-10-24T05:17:43.335Z,14.47
2022-10-24T05:20:11.691Z,14.44
2022-10-24T05:22:40.253Z,14.43
2022-10-24T05:25:08.897Z,14.43
2022-10-24T05:27:37.125Z,14.40
2022-10-24T05:30:06.349Z,14.31
2022-10-24T05:32:38.710Z,14.22
2022-10-24T05:35:09.316Z,14.13
2022-10-24T05:37:39.259Z,14.09
2022-10-24T05:40:09.655Z,14.10
2022-10-24T05:42:38.918Z,14.10
2022-10-24T05:45:09.436Z,14.07
2022-10-24T05:47:37.736Z,14.03
2022-10-24T05:50:06.848Z,14.04
2022-10-24T05:52:36.623Z,14.01
2022-10-24T05:55:08.285Z,14.00
2022-10-24T05:57:38.363Z,14.03
2022-10-24T06:00:08.939Z,14.07
2022-10-24T06:02:43.422Z,14.10
2022-10-24T06:05:12.586Z,14.09
2022-10-24T06:07:42.326Z,14.10
2022-10-24T06:10:12.034Z,14.11
2022-10-24T06:12:41.722Z,14.13
2022-10-24T06:15:12.072Z,14.16
2022-10-24T06:17:40.232Z,14.21
2022-10-24T06:20:09.196Z,14.24
2022-10-24T06:22:37.625Z,14.26
2022-10-24T06:25:06.379Z,14.29
2022-10-24T06:27:34.823Z,14.31
2022-10-24T06:30:03.731Z,14.34
2022-10-24T06:32:33.092Z,14.34
2022-10-24T06:35:02.183Z,14.36
2022-10-24T06:37:30.536Z,14.37
2022-10-24T06:39:58.710Z,14.41
2022-10-24T06:42:27.005Z,14.46
2022-10-24T06:44:55.204Z,14.49
2022-10-24T06:47:23.523Z,14.49
2022-10-24T06:49:51.734Z,14.52
2022-10-24T06:52:19.873Z,14.54
2022-10-24T06:54:49.434Z,14.57
2022-10-24T06:57:18.366Z,14.54
2022-10-24T06:59:46.601Z,14.56
2022-10-24T07:02:16.624Z,14.59
2022-10-24T07:04:45.109Z,14.59
2022-10-24T07:07:18.415Z,14.60
2022-10-24T07:09:53.317Z,14.65
2022-10-24T07:12:22.579Z,14.70
2022-10-24T07:14:50.823Z,14.74
2022-10-24T07:17:19.538Z,14.75
2022-10-24T07:19:54.730Z,14.73
2022-10-24T07:22:23.635Z,14.70
2022-10-24T07:24:56.238Z,14.68
2022-10-24T07:27:24.660Z,14.65
2022-10-24T07:29:53.671Z,14.58
2022-10-24T07:32:21.947Z,14.56
2022-10-24T07:34:50.363Z,14.55
2022-10-24T07:37:19.173Z,14.55
2022-10-24T07:39:47.515Z,14.54
2022-10-24T07:42:16.847Z,14.53
2022-10-24T07:44:45.506Z,14.51
2022-10-24T07:47:13.636Z,14.50
2022-10-24T07:49:41.958Z,14.48
2022-10-24T07:52:10.066Z,14.50
2022-10-24T07:54:38.251Z,14.52
2022-10-24T07:57:06.488Z,14.59
2022-10-24T07:59:42.346Z,14.69
2022-10-24T08:02:12.802Z,14.77
2022-10-24T08:04:41.647Z,14.80
2022-10-24T08:07:13.726Z,14.79
2022-10-24T08:09:46.481Z,14.80
2022-10-24T08:12:14.872Z,14.83
2022-10-24T08:14:43.988Z,14.82
2022-10-24T08:17:12.107Z,14.89
2022-10-24T08:19:44.093Z,14.98
2022-10-24T08:22:12.790Z,15.06
2022-10-24T08:24:43.376Z,15.14
2022-10-24T08:27:11.988Z,15.20
2022-10-24T08:29:41.119Z,15.24
2022-10-24T08:32:09.566Z,15.30
2022-10-24T08:34:38.691Z,15.31
2022-10-24T08:37:06.849Z,15.28
2022-10-24T08:39:35.238Z,15.25
2022-10-24T08:42:07.236Z,15.20
2022-10-24T08:44:41.926Z,15.19
2022-10-24T08:47:27.274Z,15.20
2022-10-24T08:50:00.390Z,15.21
2022-10-24T08:52:36.951Z,15.25
2022-10-24T08:58:37.240Z,15.36
2022-10-24T09:01:14.495Z,15.42
2022-10-24T09:04:01.599Z,15.43
2022-10-24T09:06:32.345Z,15.50
2022-10-24T09:09:03.070Z,15.57
2022-10-24T09:11:37.206Z,15.65
2022-10-24T09:14:13.794Z,15.69
2022-10-24T09:16:43.933Z,15.73
2022-10-24T09:19:17.262Z,15.72
2022-10-24T09:21:46.083Z,15.73
2022-10-24T09:24:29.071Z,15.73
2022-10-24T09:27:00.462Z,15.71
2022-10-24T09:29:31.849Z,15.70
2022-10-24T09:32:01.383Z,15.64
2022-10-24T09:34:29.791Z,15.61
2022-10-24T09:36:58.982Z,15.60
2022-10-24T09:39:31.067Z,15.55
2022-10-24T09:42:01.451Z,15.55
2022-10-24T09:44:39.382Z,15.58
2022-10-24T09:47:25.339Z,15.59
2022-10-24T09:49:54.840Z,15.56
2022-10-24T09:52:27.673Z,15.55
2022-10-24T09:55:18.431Z,15.53
2022-10-24T09:57:47.100Z,15.52
2022-10-24T10:00:23.727Z,15.55
2022-10-24T10:03:22.499Z,15.56
2022-10-24T10:05:57.591Z,15.57
2022-10-24T10:08:30.817Z,15.61
2022-10-24T10:11:07.641Z,15.62
2022-10-24T10:13:46.100Z,15.63
2022-10-24T10:16:26.226Z,15.67
2022-10-24T10:19:21.039Z,15.71
2022-10-24T10:22:05.948Z,15.75
2022-10-24T10:24:43.635Z,15.78
2022-10-24T10:27:33.556Z,15.82
2022-10-24T10:30:13.654Z,15.86
2022-10-24T10:33:04.052Z,15.93
2022-10-24T10:36:00.362Z,16.00
2022-10-24T10:38:50.758Z,16.07
2022-10-24T10:41:33.186Z,16.18
2022-10-24T10:44:20.806Z,16.28
2022-10-24T10:47:10.889Z,16.34
2022-10-24T10:49:41.218Z,16.43
2022-10-24T10:52:29.160Z,16.51
2022-10-24T10:55:25.393Z,16.65
2022-10-24T10:57:53.509Z,16.84
2022-10-24T11:00:46.667Z,16.99
2022-10-24T11:03:21.250Z,17.19
2022-10-24T11:06:24.087Z,17.43
2022-10-24T11:08:55.421Z,17.82
2022-10-24T11:11:43.430Z,18.24
2022-10-24T11:14:26.807Z,18.94
2022-10-24T11:17:01.872Z,19.62
2022-10-24T11:19:34.352Z,20.12
2022-10-24T11:22:05.234Z,20.71
2022-10-24T11:24:43.612Z,21.53
2022-10-24T11:27:24.287Z,22.45
2022-10-24T11:29:59.299Z,23.03
2022-10-24T11:32:59.934Z,23.57
2022-10-24T11:35:33.419Z,24.03
2022-10-24T11:38:18.430Z,24.69
2022-10-24T11:40:54.876Z,25.36
2022-10-24T11:43:40.470Z,25.77
2022-10-24T11:46:20.874Z,26.37
2022-10-24T11:49:19.306Z,27.37
2022-10-24T11:51:57.884Z,28.64
2022-10-24T11:54:32.857Z,29.67
2022-10-24T11:57:18.051Z,30.70
2022-10-24T11:59:46.499Z,31.79
2022-10-24T12:02:45.853Z,33.08
2022-10-24T12:05:23.604Z,34.36
2022-10-24T12:08:09.104Z,35.00
2022-10-24T12:11:00.685Z,35.17
2022-10-24T12:13:51.058Z,35.56
2022-10-24T12:16:41.993Z,35.38
2022-10-24T12:19:17.583Z,33.92
2022-10-24T12:21:52.304Z,32.99
2022-10-24T12:24:30.736Z,32.67
2022-10-24T12:27:02.909Z,31.94
2022-10-24T12:29:34.311Z,31.00
2022-10-24T12:32:24.972Z,29.92
2022-10-24T12:35:28.845Z,28.70
2022-10-24T12:37:50.435Z,27.41
2022-10-24T12:40:52.627Z,26.12
2022-10-24T12:43:50.655Z,24.66
2022-10-24T12:46:23.133Z,23.66
2022-10-24T12:49:01.223Z,22.94
2022-10-24T12:51:33.728Z,22.14
2022-10-24T12:54:12.710Z,21.29
2022-10-24T12:56:50.373Z,20.59
2022-10-24T12:59:46.731Z,20.07
2022-10-24T13:02:21.560Z,19.49
2022-10-24T13:05:10.996Z,18.93
2022-10-24T13:07:56.848Z,18.39
2022-10-24T13:10:49.944Z,17.93
2022-10-24T13:13:30.566Z,17.63
2022-10-24T13:16:42.517Z,17.73
2022-10-24T13:19:19.722Z,17.78
2022-10-24T13:21:54.938Z,17.78
2022-10-24T13:24:38.542Z,17.82
2022-10-24T13:27:11.773Z,17.86
2022-10-24T13:29:41.480Z,17.89
2022-10-24T13:32:09.700Z,17.89
2022-10-24T13:34:40.802Z,17.86
2022-10-24T13:37:20.318Z,17.86
2022-10-24T13:40:11.457Z,17.86
2022-10-24T13:42:56.732Z,17.84
2022-10-24T13:45:46.874Z,17.80
2022-10-24T13:48:21.245Z,17.73
2022-10-24T13:51:15.686Z,17.67
2022-10-24T13:53:50.558Z,17.59
2022-10-24T13:56:19.338Z,17.52
2022-10-24T13:58:47.628Z,17.49
2022-10-24T14:01:24.047Z,17.45
2022-10-24T14:03:54.733Z,17.44
2022-10-24T14:06:26.002Z,17.39
2022-10-24T14:09:05.841Z,17.35
2022-10-24T14:11:40.861Z,17.38
2022-10-24T14:14:51.494Z,17.39
2022-10-24T14:17:27.047Z,17.35
2022-10-24T14:20:01.767Z,17.34
2022-10-24T14:22:39.834Z,17.35
2022-10-24T14:25:30.286Z,17.38
2022-10-24T14:28:01.932Z,17.39
2022-10-24T14:30:34.978Z,17.39
2022-10-24T14:33:14.023Z,17.34
2022-10-24T14:35:42.796Z,17.27
2022-10-24T14:38:15.734Z,17.23
2022-10-24T14:40:45.797Z,17.19
2022-10-24T14:46:12.416Z,17.11
2022-10-24T14:48:46.272Z,17.04
2022-10-24T14:51:39.065Z,17.01
2022-10-24T14:54:19.577Z,16.98
2022-10-24T14:56:52.348Z,16.98
2022-10-24T14:59:36.646Z,16.97
2022-10-24T15:02:20.305Z,16.95
2022-10-24T15:04:50.695Z,16.91
2022-10-24T15:07:31.777Z,16.89
2022-10-24T15:10:33.441Z,16.85
2022-10-24T15:13:32.410Z,16.82
2022-10-24T15:16:01.851Z,16.80
2022-10-24T15:18:42.716Z,16.79
2022-10-24T15:21:16.983Z,16.80
2022-10-24T15:23:46.492Z,16.81
2022-10-24T15:26:27.295Z,16.78
2022-10-24T15:29:07.047Z,16.74
2022-10-24T15:31:38.609Z,16.71
2022-10-24T15:34:09.054Z,16.71
2022-10-24T15:36:41.837Z,16.68
2022-10-24T15:39:10.154Z,16.63
2022-10-24T15:41:39.477Z,16.59
2022-10-24T15:44:17.209Z,16.56
2022-10-24T15:46:46.192Z,16.52
2022-10-24T15:49:15.226Z,16.54
2022-10-24T15:51:49.048Z,16.54
2022-10-24T15:54:21.823Z,16.58
2022-10-24T15:56:50.535Z,16.57
2022-10-24T15:59:20.216Z,16.54
2022-10-24T16:01:53.122Z,16.52
2022-10-24T16:04:22.123Z,16.52
2022-10-24T16:06:51.281Z,16.53
2022-10-24T16:09:23.045Z,16.55
2022-10-24T16:11:51.662Z,16.54
2022-10-24T16:14:22.297Z,16.52
2022-10-24T16:16:50.444Z,16.52
2022-10-24T16:19:18.867Z,16.50
2022-10-24T16:21:47.067Z,16.47
2022-10-24T16:24:15.255Z,16.45
2022-10-24T16:26:43.444Z,16.42
2022-10-24T16:29:11.800Z,16.40
2022-10-24T16:31:40.219Z,16.38
2022-10-24T16:34:09.029Z,16.36
2022-10-24T16:36:37.342Z,16.32
2022-10-24T16:39:05.596Z,16.29
2022-10-24T16:41:34.387Z,16.26
2022-10-24T16:44:03.858Z,16.27
2022-10-24T16:46:32.351Z,16.38
2022-10-24T16:49:01.184Z,16.53
2022-10-24T16:51:32.871Z,16.62
2022-10-24T16:54:02.613Z,16.68
2022-10-24T16:56:30.814Z,16.73
2022-10-24T16:58:59.067Z,16.80
2022-10-24T17:01:28.027Z,16.86
2022-10-24T17:03:56.631Z,16.88
2022-10-24T17:06:24.953Z,16.89
2022-10-24T17:08:53.131Z,16.93
2022-10-24T17:11:43.723Z,16.96
2022-10-24T17:14:10.065Z,16.95
2022-10-24T17:16:38.502Z,16.94
2022-10-24T17:19:15.818Z,16.94
2022-10-24T17:21:47.267Z,16.97
2022-10-24T17:24:18.903Z,17.00
2022-10-24T17:26:47.690Z,17.04
2022-10-24T17:29:23.677Z,17.07
2022-10-24T17:31:52.348Z,17.12
2022-10-24T17:34:21.510Z,17.18
2022-10-24T17:37:04.445Z,17.21
2022-10-24T17:39:58.666Z,17.24
2022-10-24T17:42:27.184Z,17.26
2022-10-24T17:44:55.487Z,17.24
2022-10-24T17:47:23.783Z,17.26
2022-10-24T17:49:51.948Z,17.27
2022-10-24T17:52:23.302Z,17.29
2022-10-24T17:54:51.835Z,17.29
2022-10-24T17:57:20.176Z,17.29
2022-10-24T17:59:48.394Z,17.29
2022-10-24T18:02:17.040Z,17.27
2022-10-24T18:04:45.618Z,17.26
2022-10-24T18:07:15.082Z,17.26
2022-10-24T18:09:43.543Z,17.27
2022-10-24T18:12:11.859Z,17.31
2022-10-24T18:14:40.298Z,17.33
2022-10-24T18:17:08.764Z,17.31
2022-10-24T18:19:37.155Z,17.29
2022-10-24T18:22:05.653Z,17.28
2022-10-24T18:24:34.462Z,17.27
2022-10-24T18:27:02.898Z,17.26
2022-10-24T18:29:31.315Z,17.27
2022-10-24T18:31:59.551Z,17.27
2022-10-24T18:34:27.953Z,17.29
2022-10-24T18:36:56.269Z,17.29
2022-10-24T18:39:27.646Z,17.30
2022-10-24T18:42:32.734Z,17.29
2022-10-24T18:45:01.456Z,17.29
2022-10-24T18:47:30.560Z,17.32
2022-10-24T18:49:59.370Z,17.34
2022-10-24T18:52:48.826Z,17.36
2022-10-24T18:55:24.088Z,17.39
2022-10-24T18:57:52.722Z,17.43
2022-10-24T19:00:26.453Z,17.44
2022-10-24T19:03:33.785Z,17.44
2022-10-24T19:06:23.954Z,17.46
2022-10-24T19:08:52.478Z,17.50
2022-10-24T19:11:22.320Z,17.51
2022-10-24T19:13:50.969Z,17.54
2022-10-24T19:16:22.640Z,17.59
2022-10-24T19:18:56.001Z,17.61
2022-10-24T19:21:26.221Z,17.63
2022-10-24T19:23:54.715Z,17.65
2022-10-24T19:26:22.973Z,17.67
2022-10-24T19:28:51.310Z,17.67
2022-10-24T19:31:19.594Z,17.66
2022-10-24T19:33:47.819Z,17.63
2022-10-24T19:36:19.078Z,17.67
2022-10-24T19:38:48.004Z,17.69
2022-10-24T19:41:16.504Z,17.67
2022-10-24T19:43:44.680Z,17.65
2022-10-24T19:46:20.784Z,17.61
2022-10-24T19:48:49.829Z,17.59
2022-10-24T19:51:19.630Z,17.56
2022-10-24T19:53:49.838Z,17.54
2022-10-24T19:56:28.975Z,17.54
2022-10-24T19:58:57.528Z,17.54
2022-10-24T20:01:28.728Z,17.55
2022-10-24T20:03:57.300Z,17.54
2022-10-24T20:06:26.490Z,17.54
2022-10-24T20:08:54.958Z,17.56
2022-10-24T20:11:23.782Z,17.55
2022-10-24T20:13:52.439Z,17.55
2022-10-24T20:16:20.772Z,17.55
2022-10-24T20:18:49.483Z,17.55
2022-10-24T20:21:19.357Z,17.55
2022-10-24T20:23:48.657Z,17.55
2022-10-24T20:26:22.949Z,17.57
2022-10-24T20:28:53.836Z,17.54
2022-10-24T20:31:22.148Z,17.55
2022-10-24T20:33:51.154Z,17.52
2022-10-24T20:36:21.452Z,17.46
2022-10-24T20:38:49.647Z,17.43
2022-10-24T20:41:18.145Z,17.44
2022-10-24T20:43:46.576Z,17.44
2022-10-24T20:46:14.763Z,17.41
2022-10-24T20:48:42.895Z,17.40
2022-10-24T20:51:13.770Z,17.38
2022-10-24T20:53:42.641Z,17.38
2022-10-24T20:56:22.573Z,17.37
2022-10-24T20:58:52.079Z,17.34
2022-10-24T21:01:25.275Z,17.34
2022-10-24T21:03:55.356Z,17.32
2022-10-24T21:06:26.461Z,17.33
2022-10-24T21:08:57.733Z,17.33
2022-10-24T21:11:28.622Z,17.32
